createdAt,value
2022-11-02T00:01:38.763Z,4.97
2022-11-02T00:06:32.061Z,4.13
2022-11-02T00:11:50.877Z,22.87
2022-11-02T00:16:45.635Z,57.10
2022-11-02T00:21:39.819Z,61.70
2022-11-02T00:26:36.136Z,95.47
2022-11-02T00:31:29.559Z,91.07
2022-11-02T00:36:25.837Z,66.37
2022-11-02T00:41:22.075Z,60.87
2022-11-02T00:46:15.576Z,49.20
2022-11-02T00:51:08.814Z,44.40
2022-11-02T00:56:03.374Z,52.00
2022-11-02T01:00:57.293Z,44.93
2022-11-02T01:05:50.530Z,29.33
2022-11-02T01:10:47.225Z,13.97
2022-11-02T01:15:43.244Z,18.53
2022-11-02T01:20:36.535Z,12.50
2022-11-02T01:25:29.853Z,13.33
2022-11-02T01:30:21.765Z,11.37
2022-11-02T01:35:16.855Z,12.43
2022-11-02T01:40:11.843Z,8.77
2022-11-02T01:45:05.897Z,5.73
2022-11-02T01:50:07.717Z,9.73
2022-11-02T01:55:10.526Z,8.00
2022-11-02T02:00:09.963Z,8.33
2022-11-02T02:05:08.790Z,6.93
2022-11-02T02:10:03.616Z,5.93
2022-11-02T02:14:57.141Z,8.97
2022-11-02T02:20:00.252Z,6.43
2022-11-02T02:25:14.151Z,9.10
2022-11-02T02:30:11.576Z,6.40
2022-11-02T02:35:19.090Z,6.00
2022-11-02T02:40:20.954Z,6.77
2022-11-02T02:45:24.161Z,5.23
2022-11-02T02:50:25.754Z,7.87
2022-11-02T02:55:25.344Z,8.60
2022-11-02T03:00:20.542Z,10.10
2022-11-02T03:05:25.836Z,8.20
2022-11-02T03:10:28.172Z,7.57
2022-11-02T03:15:32.084Z,10.47
2022-11-02T03:20:35.106Z,8.13
2022-11-02T03:25:40.727Z,8.13
2022-11-02T03:30:43.850Z,9.50
2022-11-02T03:35:46.582Z,9.40
2022-11-02T03:40:45.674Z,10.67
2022-11-02T03:45:45.050Z,9.40
2022-11-02T03:50:44.934Z,8.30
2022-11-02T03:55:47.336Z,8.63
2022-11-02T04:00:51.072Z,7.23
2022-11-02T04:05:44.328Z,7.60
2022-11-02T04:10:57.621Z,8.00
2022-11-02T04:15:53.185Z,8.97
2022-11-02T04:20:51.048Z,9.10
2022-11-02T04:25:44.334Z,12.27
2022-11-02T04:30:37.667Z,6.77
2022-11-02T04:35:33.842Z,6.30
2022-11-02T04:40:27.218Z,9.03
2022-11-02T04:45:20.783Z,5.77
2022-11-02T04:50:13.990Z,8.73
2022-11-02T04:55:10.340Z,8.23
2022-11-02T05:00:03.884Z,8.40
2022-11-02T05:04:57.203Z,5.30
2022-11-02T05:09:50.821Z,7.20
2022-11-02T05:14:45.487Z,6.53
2022-11-02T05:19:38.736Z,6.23
2022-11-02T05:24:32.034Z,4.00
2022-11-02T05:29:25.339Z,6.37
2022-11-02T05:34:20.015Z,5.77
2022-11-02T05:39:13.262Z,6.50
2022-11-02T05:44:06.829Z,10.57
2022-11-02T05:49:00.096Z,8.43
2022-11-02T05:53:55.776Z,7.23
2022-11-02T05:58:49.141Z,6.33
2022-11-02T06:03:42.468Z,6.10
2022-11-02T06:08:36.965Z,7.80
2022-11-02T06:13:31.581Z,5.87
2022-11-02T06:18:24.800Z,9.47
2022-11-02T06:23:18.439Z,7.30
2022-11-02T06:28:11.742Z,4.57
2022-11-02T06:33:07.386Z,9.10
2022-11-02T06:38:00.993Z,4.80
2022-11-02T06:43:15.242Z,6.73
2022-11-02T06:48:11.025Z,6.63
2022-11-02T06:53:04.633Z,5.23
2022-11-02T06:57:58.176Z,10.40
2022-11-02T07:03:01.438Z,8.67
2022-11-02T07:07:56.435Z,8.47
2022-11-02T07:12:55.350Z,15.57
2022-11-02T07:17:48.731Z,9.23
2022-11-02T07:22:42.545Z,13.60
2022-11-02T07:27:41.620Z,8.60
2022-11-02T07:32:44.311Z,10.37
2022-11-02T07:37:38.149Z,9.10
2022-11-02T07:42:31.985Z,6.83
2022-11-02T07:47:27.244Z,6.97
2022-11-02T07:52:20.593Z,8.53
2022-11-02T07:57:13.876Z,7.03
2022-11-02T08:02:07.532Z,6.27
2022-11-02T08:07:02.150Z,7.73
2022-11-02T08:11:57.725Z,8.97
2022-11-02T08:16:53.613Z,6.80
2022-11-02T08:21:46.986Z,7.27
2022-11-02T08:26:44.171Z,6.40
2022-11-02T08:31:38.756Z,9.70
2022-11-02T08:36:32.180Z,5.60
2022-11-02T08:41:25.464Z,6.93
2022-11-02T08:46:23.388Z,4.23
2022-11-02T08:51:16.729Z,7.53
2022-11-02T08:56:09.979Z,4.60
2022-11-02T09:01:03.278Z,5.50
2022-11-02T09:06:02.994Z,10.23
2022-11-02T09:11:01.340Z,7.13
2022-11-02T09:15:56.709Z,8.20
2022-11-02T09:20:51.135Z,9.53
2022-11-02T09:25:46.203Z,6.50
2022-11-02T09:30:39.648Z,6.70
2022-11-02T09:35:35.863Z,6.47
2022-11-02T09:40:32.814Z,4.27
2022-11-02T09:45:30.600Z,10.57
2022-11-02T09:50:31.587Z,3.47
2022-11-02T09:55:32.591Z,11.00
2022-11-02T10:00:31.609Z,4.60
2022-11-02T10:05:44.036Z,5.37
2022-11-02T10:10:47.153Z,6.53
2022-11-02T10:15:52.156Z,7.13
2022-11-02T10:20:50.242Z,5.57
2022-11-02T10:25:43.947Z,7.33
2022-11-02T10:30:39.412Z,5.50
2022-11-02T10:41:26.192Z,4.37
2022-11-02T10:46:41.807Z,6.37
2022-11-02T10:51:36.846Z,5.50
2022-11-02T10:56:33.114Z,5.60
2022-11-02T11:01:27.711Z,6.17
2022-11-02T11:06:22.265Z,7.77
2022-11-02T11:11:23.297Z,4.77
2022-11-02T11:16:18.647Z,6.87
2022-11-02T11:21:15.238Z,5.17
2022-11-02T11:26:32.031Z,6.07
2022-11-02T11:31:26.915Z,7.37
2022-11-02T11:36:28.919Z,7.57
2022-11-02T11:41:23.212Z,9.70
2022-11-02T11:46:18.850Z,7.83
2022-11-02T11:51:35.730Z,5.50
2022-11-02T11:56:29.712Z,5.93
2022-11-02T12:01:27.744Z,3.60
2022-11-02T12:06:34.970Z,6.27
2022-11-02T12:11:49.010Z,4.93
2022-11-02T12:17:11.136Z,10.77
2022-11-02T12:22:19.168Z,5.70
2022-11-02T12:27:31.596Z,5.00
2022-11-02T12:32:53.305Z,3.07
2022-11-02T12:38:07.444Z,4.13
2022-11-02T12:43:28.041Z,6.10
2022-11-02T12:48:37.672Z,7.53
2022-11-02T12:53:48.308Z,5.00
2022-11-02T12:58:43.121Z,5.95
2022-11-02T13:03:52.802Z,4.27
2022-11-02T13:08:53.443Z,4.17
2022-11-02T13:13:54.033Z,4.03
2022-11-02T13:18:54.083Z,4.30
2022-11-02T13:23:52.975Z,5.13
2022-11-02T13:28:51.658Z,3.77
2022-11-02T13:33:52.395Z,6.03
2022-11-02T13:38:52.545Z,4.57
2022-11-02T13:44:35.118Z,7.50
2022-11-02T13:49:36.592Z,3.37
2022-11-02T13:54:36.121Z,4.83
2022-11-02T13:59:35.914Z,2.87
2022-11-02T14:04:41.643Z,6.23
2022-11-02T14:09:42.180Z,3.67
2022-11-02T14:14:35.458Z,4.90
2022-11-02T14:19:49.937Z,3.60
2022-11-02T14:25:21.085Z,3.55
2022-11-02T14:30:46.706Z,2.90
2022-11-02T14:35:47.911Z,5.37
2022-11-02T14:40:59.618Z,5.43
2022-11-02T14:46:17.693Z,4.68
2022-11-02T14:51:21.815Z,4.90
2022-11-02T14:56:16.624Z,2.63
2022-11-02T15:01:16.853Z,3.40
2022-11-02T15:06:23.620Z,5.63
2022-11-02T15:11:49.439Z,3.88
2022-11-02T15:16:42.758Z,4.60
2022-11-02T15:21:36.215Z,5.20
2022-11-02T15:26:41.955Z,4.93
2022-11-02T15:31:38.034Z,4.80
2022-11-02T15:36:37.421Z,6.00
2022-11-02T15:41:40.809Z,6.50
2022-11-02T15:46:55.341Z,3.27
2022-11-02T15:52:01.437Z,4.80
2022-11-02T15:57:12.552Z,5.53
2022-11-02T16:02:34.413Z,6.43
2022-11-02T16:07:33.376Z,6.90
2022-11-02T16:12:42.392Z,22.40
2022-11-02T16:17:37.054Z,12.40
2022-11-02T16:22:30.571Z,33.40
2022-11-02T16:27:28.487Z,38.77
2022-11-02T16:32:22.037Z,21.33
2022-11-02T16:37:24.140Z,30.93
2022-11-02T16:42:25.526Z,9.43
2022-11-02T16:47:22.230Z,7.47
2022-11-02T16:52:23.865Z,11.67
2022-11-02T16:57:23.383Z,17.03
2022-11-02T17:02:17.231Z,14.03
2022-11-02T17:07:19.120Z,13.93
2022-11-02T17:12:17.901Z,15.13
2022-11-02T17:17:36.378Z,10.50
2022-11-02T17:22:30.962Z,11.23
2022-11-02T17:27:42.379Z,11.17
2022-11-02T17:32:36.191Z,14.37
2022-11-02T17:37:32.198Z,9.37
2022-11-02T17:42:43.105Z,10.00
2022-11-02T17:47:37.686Z,9.93
2022-11-02T17:52:30.907Z,9.07
2022-11-02T17:57:24.162Z,15.27
2022-11-02T18:02:17.898Z,14.90
2022-11-02T18:07:13.063Z,14.47
2022-11-02T18:12:06.694Z,13.27
2022-11-02T18:16:59.934Z,15.03
2022-11-02T18:21:53.201Z,11.70
2022-11-02T18:26:47.882Z,15.50
2022-11-02T18:31:41.158Z,21.93
2022-11-02T18:36:34.469Z,25.00
2022-11-02T18:41:31.040Z,14.17
2022-11-02T18:46:28.024Z,14.93
2022-11-02T18:51:24.734Z,27.73
2022-11-02T18:56:18.163Z,10.73
2022-11-02T19:01:14.644Z,10.57
2022-11-02T19:06:26.970Z,12.67
2022-11-02T19:11:20.311Z,10.40
2022-11-02T19:16:14.236Z,10.80
2022-11-02T19:21:09.200Z,8.90
2022-11-02T19:26:02.591Z,9.40
2022-11-02T19:30:55.999Z,41.83
2022-11-02T19:35:56.328Z,49.63
2022-11-02T19:41:02.611Z,36.57
2022-11-02T19:46:01.988Z,14.80
2022-11-02T19:50:55.541Z,12.77
2022-11-02T19:55:57.595Z,9.67
2022-11-02T20:00:51.069Z,9.60
2022-11-02T20:05:50.998Z,13.20
2022-11-02T20:10:44.747Z,9.23
2022-11-02T20:15:40.623Z,9.50
2022-11-02T20:20:34.090Z,9.00
2022-11-02T20:25:27.340Z,8.73
2022-11-02T20:30:22.305Z,9.67
2022-11-02T20:35:20.103Z,8.40
2022-11-02T20:40:15.904Z,8.77
2022-11-02T20:45:10.275Z,9.43
2022-11-02T20:50:03.601Z,14.50
2022-11-02T20:54:58.207Z,6.93
2022-11-02T20:59:51.461Z,14.00
2022-11-02T21:04:44.694Z,14.37
2022-11-02T21:09:37.949Z,6.67
2022-11-02T21:14:32.643Z,5.97
2022-11-02T21:19:25.919Z,10.93
2022-11-02T21:24:19.188Z,11.23
2022-11-02T21:29:12.594Z,9.60
2022-11-02T21:34:07.217Z,11.50
2022-11-02T21:39:00.490Z,9.93
2022-11-02T21:43:55.586Z,8.63
2022-11-02T21:48:49.490Z,12.37
2022-11-02T21:53:46.302Z,6.73
2022-11-02T21:58:44.770Z,7.77
2022-11-02T22:03:39.511Z,8.47
2022-11-02T22:08:41.463Z,6.23
2022-11-02T22:13:36.675Z,6.97
2022-11-02T22:18:29.921Z,7.50
2022-11-02T22:23:23.113Z,8.10
2022-11-02T22:28:16.439Z,7.30
2022-11-02T22:33:12.445Z,5.90
2022-11-02T22:38:28.683Z,6.57
2022-11-02T22:43:21.895Z,4.97
2022-11-02T22:53:09.672Z,8.57
2022-11-02T22:58:02.887Z,6.30
2022-11-02T23:02:56.136Z,7.00
2022-11-02T23:07:50.780Z,4.83
2022-11-02T23:12:43.972Z,5.37
2022-11-02T23:17:37.256Z,9.67
2022-11-02T23:22:48.351Z,7.37
2022-11-02T23:28:08.713Z,6.10
2022-11-02T23:33:01.931Z,7.07
2022-11-02T23:38:04.690Z,9.10
2022-11-02T23:42:59.475Z,7.63
2022-11-02T23:48:00.170Z,6.83
2022-11-02T23:53:11.885Z,5.97
2022-11-02T23:58:06.499Z,10.90
